sensor_id;sensor_type;location;lat;lon;timestamp;P1;durP1;ratioP1;P2;durP2;ratioP2
9522;SDS011;63165;43.016;25.784;2023-05-10T00:02:27;21.75;;;6.60;;
9522;SDS011;63165;43.016;25.784;2023-05-10T00:04:56;17.85;;;7.03;;
9522;SDS011;63165;43.016;25.784;2023-05-10T00:07:23;24.83;;;8.75;;
9522;SDS011;63165;43.016;25.784;2023-05-10T00:09:50;29.83;;;10.13;;
9522;SDS011;63165;43.016;25.784;2023-05-10T00:12:18;21.45;;;7.20;;
9522;SDS011;63165;43.016;25.784;2023-05-10T00:14:45;17.83;;;7.40;;
9522;SDS011;63165;43.016;25.784;2023-05-10T00:17:13;20.73;;;8.30;;
9522;SDS011;63165;43.016;25.784;2023-05-10T00:19:40;15.32;;;6.20;;
9522;SDS011;63165;43.016;25.784;2023-05-10T00:22:09;19.45;;;6.28;;
9522;SDS011;63165;43.016;25.784;2023-05-10T00:24:36;24.10;;;8.27;;
9522;SDS011;63165;43.016;25.784;2023-05-10T00:27:04;23.98;;;8.10;;
9522;SDS011;63165;43.016;25.784;2023-05-10T00:29:31;47.08;;;14.95;;
9522;SDS011;63165;43.016;25.784;2023-05-10T00:31:59;30.45;;;10.68;;
9522;SDS011;63165;43.016;25.784;2023-05-10T00:34:26;31.25;;;9.50;;
9522;SDS011;63165;43.016;25.784;2023-05-10T00:36:53;26.13;;;8.63;;
9522;SDS011;63165;43.016;25.784;2023-05-10T00:39:23;19.63;;;6.63;;
9522;SDS011;63165;43.016;25.784;2023-05-10T00:41:51;18.70;;;6.45;;
9522;SDS011;63165;43.016;25.784;2023-05-10T00:44:18;17.08;;;5.80;;
9522;SDS011;63165;43.016;25.784;2023-05-10T00:46:46;15.35;;;6.05;;
9522;SDS011;63165;43.016;25.784;2023-05-10T00:49:14;19.95;;;6.28;;
9522;SDS011;63165;43.016;25.784;2023-05-10T00:51:42;19.73;;;6.95;;
9522;SDS011;63165;43.016;25.784;2023-05-10T00:54:11;24.98;;;6.80;;
9522;SDS011;63165;43.016;25.784;2023-05-10T00:56:42;17.77;;;5.85;;
9522;SDS011;63165;43.016;25.784;2023-05-10T01:01:41;23.25;;;5.63;;
9522;SDS011;63165;43.016;25.784;2023-05-10T01:04:09;15.95;;;4.65;;
9522;SDS011;63165;43.016;25.784;2023-05-10T01:06:38;25.08;;;4.95;;
9522;SDS011;63165;43.016;25.784;2023-05-10T01:09:05;11.88;;;4.60;;
9522;SDS011;63165;43.016;25.784;2023-05-10T01:11:45;11.30;;;4.53;;
9522;SDS011;63165;43.016;25.784;2023-05-10T01:14:15;12.48;;;5.10;;
9522;SDS011;63165;43.016;25.784;2023-05-10T01:16:49;15.40;;;5.38;;
9522;SDS011;63165;43.016;25.784;2023-05-10T01:20:25;25.95;;;7.30;;
9522;SDS011;63165;43.016;25.784;2023-05-10T01:26:30;15.18;;;5.00;;
9522;SDS011;63165;43.016;25.784;2023-05-10T01:39:14;22.33;;;4.97;;
9522;SDS011;63165;43.016;25.784;2023-05-10T01:41:49;15.10;;;4.78;;
9522;SDS011;63165;43.016;25.784;2023-05-10T01:51:04;17.38;;;4.78;;
9522;SDS011;63165;43.016;25.784;2023-05-10T01:56:34;12.80;;;4.75;;
9522;SDS011;63165;43.016;25.784;2023-05-10T01:59:20;11.93;;;4.75;;
9522;SDS011;63165;43.016;25.784;2023-05-10T02:02:02;13.30;;;4.90;;
9522;SDS011;63165;43.016;25.784;2023-05-10T02:04:39;16.98;;;4.45;;
9522;SDS011;63165;43.016;25.784;2023-05-10T02:07:09;17.55;;;5.05;;
9522;SDS011;63165;43.016;25.784;2023-05-10T02:09:38;16.95;;;4.88;;
9522;SDS011;63165;43.016;25.784;2023-05-10T02:12:06;16.10;;;6.10;;
9522;SDS011;63165;43.016;25.784;2023-05-10T02:14:35;18.00;;;5.65;;
9522;SDS011;63165;43.016;25.784;2023-05-10T02:17:04;13.88;;;5.45;;
9522;SDS011;63165;43.016;25.784;2023-05-10T02:19:34;16.70;;;6.20;;
9522;SDS011;63165;43.016;25.784;2023-05-10T02:22:20;19.63;;;6.43;;
9522;SDS011;63165;43.016;25.784;2023-05-10T02:24:49;16.67;;;6.22;;
9522;SDS011;63165;43.016;25.784;2023-05-10T02:27:17;15.95;;;5.80;;
9522;SDS011;63165;43.016;25.784;2023-05-10T02:32:14;13.00;;;4.85;;
9522;SDS011;63165;43.016;25.784;2023-05-10T02:34:43;16.85;;;4.97;;
9522;SDS011;63165;43.016;25.784;2023-05-10T02:37:17;17.02;;;5.20;;
9522;SDS011;63165;43.016;25.784;2023-05-10T02:39:48;19.10;;;4.97;;
9522;SDS011;63165;43.016;25.784;2023-05-10T02:42:17;19.77;;;5.72;;
9522;SDS011;63165;43.016;25.784;2023-05-10T02:44:47;16.48;;;4.45;;
9522;SDS011;63165;43.016;25.784;2023-05-10T02:47:16;16.52;;;5.20;;
9522;SDS011;63165;43.016;25.784;2023-05-10T02:49:44;18.98;;;5.47;;
9522;SDS011;63165;43.016;25.784;2023-05-10T02:52:12;10.02;;;4.55;;
9522;SDS011;63165;43.016;25.784;2023-05-10T02:54:45;13.25;;;4.50;;
9522;SDS011;63165;43.016;25.784;2023-05-10T02:57:16;28.63;;;5.38;;
9522;SDS011;63165;43.016;25.784;2023-05-10T02:59:48;11.30;;;4.60;;
9522;SDS011;63165;43.016;25.784;2023-05-10T03:02:15;11.15;;;4.13;;
9522;SDS011;63165;43.016;25.784;2023-05-10T03:04:43;12.18;;;4.60;;
9522;SDS011;63165;43.016;25.784;2023-05-10T03:07:10;15.90;;;5.18;;
9522;SDS011;63165;43.016;25.784;2023-05-10T03:09:38;23.90;;;5.35;;
9522;SDS011;63165;43.016;25.784;2023-05-10T03:12:10;19.25;;;5.28;;
9522;SDS011;63165;43.016;25.784;2023-05-10T03:14:48;16.67;;;4.50;;
9522;SDS011;63165;43.016;25.784;2023-05-10T03:17:22;14.73;;;4.68;;
9522;SDS011;63165;43.016;25.784;2023-05-10T03:19:56;18.08;;;4.68;;
9522;SDS011;63165;43.016;25.784;2023-05-10T03:22:26;9.38;;;4.30;;
9522;SDS011;63165;43.016;25.784;2023-05-10T03:24:57;16.60;;;4.70;;
9522;SDS011;63165;43.016;25.784;2023-05-10T03:27:29;13.68;;;5.13;;
9522;SDS011;63165;43.016;25.784;2023-05-10T03:29:57;14.43;;;5.05;;
9522;SDS011;63165;43.016;25.784;2023-05-10T03:32:25;16.63;;;5.20;;
9522;SDS011;63165;43.016;25.784;2023-05-10T03:34:53;14.27;;;4.90;;
9522;SDS011;63165;43.016;25.784;2023-05-10T03:37:21;11.65;;;4.45;;
9522;SDS011;63165;43.016;25.784;2023-05-10T03:39:56;14.18;;;5.25;;
9522;SDS011;63165;43.016;25.784;2023-05-10T03:43:05;14.27;;;4.35;;
9522;SDS011;63165;43.016;25.784;2023-05-10T03:45:46;15.77;;;4.68;;
9522;SDS011;63165;43.016;25.784;2023-05-10T03:48:13;14.30;;;4.65;;
9522;SDS011;63165;43.016;25.784;2023-05-10T03:50:45;18.50;;;5.63;;
9522;SDS011;63165;43.016;25.784;2023-05-10T03:55:56;21.92;;;4.80;;
9522;SDS011;63165;43.016;25.784;2023-05-10T03:58:25;17.75;;;5.25;;
9522;SDS011;63165;43.016;25.784;2023-05-10T04:00:52;16.30;;;5.07;;
9522;SDS011;63165;43.016;25.784;2023-05-10T04:03:20;22.55;;;5.63;;
9522;SDS011;63165;43.016;25.784;2023-05-10T04:05:48;19.05;;;5.93;;
9522;SDS011;63165;43.016;25.784;2023-05-10T04:08:15;12.93;;;5.03;;
9522;SDS011;63165;43.016;25.784;2023-05-10T04:10:42;16.23;;;5.75;;
9522;SDS011;63165;43.016;25.784;2023-05-10T04:13:09;11.35;;;4.88;;
9522;SDS011;63165;43.016;25.784;2023-05-10T04:15:38;18.95;;;5.25;;
9522;SDS011;63165;43.016;25.784;2023-05-10T04:18:05;14.85;;;4.75;;
9522;SDS011;63165;43.016;25.784;2023-05-10T04:20:42;14.10;;;5.18;;
9522;SDS011;63165;43.016;25.784;2023-05-10T04:23:09;14.18;;;4.90;;
9522;SDS011;63165;43.016;25.784;2023-05-10T04:25:37;30.40;;;5.38;;
9522;SDS011;63165;43.016;25.784;2023-05-10T04:28:04;14.85;;;5.35;;
9522;SDS011;63165;43.016;25.784;2023-05-10T04:30:34;14.73;;;5.45;;
9522;SDS011;63165;43.016;25.784;2023-05-10T04:33:03;19.40;;;5.90;;
9522;SDS011;63165;43.016;25.784;2023-05-10T04:35:30;16.65;;;5.78;;
9522;SDS011;63165;43.016;25.784;2023-05-10T04:37:57;21.63;;;5.65;;
9522;SDS011;63165;43.016;25.784;2023-05-10T04:40:25;14.15;;;4.88;;
9522;SDS011;63165;43.016;25.784;2023-05-10T04:42:52;16.85;;;4.75;;
9522;SDS011;63165;43.016;25.784;2023-05-10T04:45:19;14.90;;;5.53;;
9522;SDS011;63165;43.016;25.784;2023-05-10T04:47:47;15.55;;;5.18;;
9522;SDS011;63165;43.016;25.784;2023-05-10T04:50:16;14.65;;;4.70;;
9522;SDS011;63165;43.016;25.784;2023-05-10T04:52:44;15.50;;;5.40;;
9522;SDS011;63165;43.016;25.784;2023-05-10T04:55:13;14.73;;;4.82;;
9522;SDS011;63165;43.016;25.784;2023-05-10T04:57:41;15.30;;;4.63;;
9522;SDS011;63165;43.016;25.784;2023-05-10T05:00:09;18.40;;;4.43;;
9522;SDS011;63165;43.016;25.784;2023-05-10T05:02:37;10.27;;;4.68;;
9522;SDS011;63165;43.016;25.784;2023-05-10T05:05:04;16.05;;;4.60;;
9522;SDS011;63165;43.016;25.784;2023-05-10T05:07:34;13.50;;;4.97;;
9522;SDS011;63165;43.016;25.784;2023-05-10T05:10:03;16.73;;;4.90;;
9522;SDS011;63165;43.016;25.784;2023-05-10T05:12:41;12.95;;;4.97;;
9522;SDS011;63165;43.016;25.784;2023-05-10T05:15:08;13.07;;;4.35;;
9522;SDS011;63165;43.016;25.784;2023-05-10T05:17:36;13.63;;;5.43;;
9522;SDS011;63165;43.016;25.784;2023-05-10T05:20:04;12.90;;;5.05;;
9522;SDS011;63165;43.016;25.784;2023-05-10T05:22:37;13.00;;;4.35;;
9522;SDS011;63165;43.016;25.784;2023-05-10T05:25:04;10.32;;;4.20;;
9522;SDS011;63165;43.016;25.784;2023-05-10T05:27:36;9.95;;;4.50;;
9522;SDS011;63165;43.016;25.784;2023-05-10T05:30:07;21.50;;;5.00;;
9522;SDS011;63165;43.016;25.784;2023-05-10T05:32:50;12.05;;;4.80;;
9522;SDS011;63165;43.016;25.784;2023-05-10T05:35:18;12.95;;;5.30;;
9522;SDS011;63165;43.016;25.784;2023-05-10T05:37:46;13.75;;;5.18;;
9522;SDS011;63165;43.016;25.784;2023-05-10T05:40:14;10.15;;;4.35;;
9522;SDS011;63165;43.016;25.784;2023-05-10T05:42:41;21.63;;;4.80;;
9522;SDS011;63165;43.016;25.784;2023-05-10T05:45:09;14.95;;;4.45;;
9522;SDS011;63165;43.016;25.784;2023-05-10T05:47:38;15.63;;;4.72;;
9522;SDS011;63165;43.016;25.784;2023-05-10T05:50:06;13.30;;;5.03;;
9522;SDS011;63165;43.016;25.784;2023-05-10T05:52:34;11.75;;;4.85;;
9522;SDS011;63165;43.016;25.784;2023-05-10T05:55:03;14.30;;;4.55;;
9522;SDS011;63165;43.016;25.784;2023-05-10T05:58:11;14.57;;;5.00;;
9522;SDS011;63165;43.016;25.784;2023-05-10T06:00:38;11.73;;;5.03;;
9522;SDS011;63165;43.016;25.784;2023-05-10T06:03:05;12.10;;;4.50;;
9522;SDS011;63165;43.016;25.784;2023-05-10T06:05:38;14.77;;;4.55;;
9522;SDS011;63165;43.016;25.784;2023-05-10T06:10:53;10.45;;;4.60;;
9522;SDS011;63165;43.016;25.784;2023-05-10T06:13:24;13.80;;;4.57;;
9522;SDS011;63165;43.016;25.784;2023-05-10T06:16:12;13.63;;;4.70;;
9522;SDS011;63165;43.016;25.784;2023-05-10T06:18:53;16.05;;;4.45;;
9522;SDS011;63165;43.016;25.784;2023-05-10T06:21:26;8.88;;;4.40;;
9522;SDS011;63165;43.016;25.784;2023-05-10T06:23:56;11.45;;;4.28;;
9522;SDS011;63165;43.016;25.784;2023-05-10T06:26:30;9.60;;;4.07;;
9522;SDS011;63165;43.016;25.784;2023-05-10T06:29:04;19.02;;;4.72;;
9522;SDS011;63165;43.016;25.784;2023-05-10T06:31:33;16.75;;;5.15;;
9522;SDS011;63165;43.016;25.784;2023-05-10T06:34:00;19.35;;;8.07;;
9522;SDS011;63165;43.016;25.784;2023-05-10T06:36:30;17.30;;;5.78;;
9522;SDS011;63165;43.016;25.784;2023-05-10T06:38:57;12.57;;;3.97;;
9522;SDS011;63165;43.016;25.784;2023-05-10T06:41:24;8.93;;;3.97;;
9522;SDS011;63165;43.016;25.784;2023-05-10T06:43:53;11.52;;;3.55;;
9522;SDS011;63165;43.016;25.784;2023-05-10T06:46:20;6.65;;;3.60;;
9522;SDS011;63165;43.016;25.784;2023-05-10T06:48:47;10.88;;;3.60;;
9522;SDS011;63165;43.016;25.784;2023-05-10T06:51:15;8.68;;;3.67;;
9522;SDS011;63165;43.016;25.784;2023-05-10T06:53:42;6.50;;;3.45;;
9522;SDS011;63165;43.016;25.784;2023-05-10T06:56:10;6.88;;;3.40;;
9522;SDS011;63165;43.016;25.784;2023-05-10T06:58:37;7.28;;;3.60;;
9522;SDS011;63165;43.016;25.784;2023-05-10T07:01:05;7.47;;;3.17;;
9522;SDS011;63165;43.016;25.784;2023-05-10T07:03:33;9.43;;;3.58;;
9522;SDS011;63165;43.016;25.784;2023-05-10T07:06:01;7.53;;;3.00;;
9522;SDS011;63165;43.016;25.784;2023-05-10T07:08:29;8.57;;;2.95;;
9522;SDS011;63165;43.016;25.784;2023-05-10T07:11:00;7.60;;;2.95;;
9522;SDS011;63165;43.016;25.784;2023-05-10T07:13:29;8.65;;;3.42;;
9522;SDS011;63165;43.016;25.784;2023-05-10T07:15:57;6.78;;;2.78;;
9522;SDS011;63165;43.016;25.784;2023-05-10T07:18:26;7.60;;;3.17;;
9522;SDS011;63165;43.016;25.784;2023-05-10T07:20:54;9.98;;;3.70;;
9522;SDS011;63165;43.016;25.784;2023-05-10T07:23:23;11.07;;;4.03;;
9522;SDS011;63165;43.016;25.784;2023-05-10T07:25:50;12.20;;;4.28;;
9522;SDS011;63165;43.016;25.784;2023-05-10T07:28:22;6.55;;;2.90;;
9522;SDS011;63165;43.016;25.784;2023-05-10T07:30:50;7.95;;;2.65;;
9522;SDS011;63165;43.016;25.784;2023-05-10T07:33:17;7.82;;;2.92;;
9522;SDS011;63165;43.016;25.784;2023-05-10T07:35:46;12.00;;;3.20;;
9522;SDS011;63165;43.016;25.784;2023-05-10T07:38:15;5.20;;;2.88;;
9522;SDS011;63165;43.016;25.784;2023-05-10T07:40:44;9.82;;;2.65;;
9522;SDS011;63165;43.016;25.784;2023-05-10T07:43:11;6.97;;;2.92;;
9522;SDS011;63165;43.016;25.784;2023-05-10T07:45:39;5.82;;;2.75;;
9522;SDS011;63165;43.016;25.784;2023-05-10T07:48:06;10.82;;;3.58;;
9522;SDS011;63165;43.016;25.784;2023-05-10T07:50:34;5.50;;;2.75;;
9522;SDS011;63165;43.016;25.784;2023-05-10T07:53:02;6.88;;;2.83;;
9522;SDS011;63165;43.016;25.784;2023-05-10T07:55:30;7.03;;;2.92;;
9522;SDS011;63165;43.016;25.784;2023-05-10T07:57:57;7.60;;;2.80;;
9522;SDS011;63165;43.016;25.784;2023-05-10T08:00:26;7.97;;;2.70;;
9522;SDS011;63165;43.016;25.784;2023-05-10T08:02:53;6.63;;;3.10;;
9522;SDS011;63165;43.016;25.784;2023-05-10T08:05:21;7.45;;;3.35;;
9522;SDS011;63165;43.016;25.784;2023-05-10T08:07:48;7.18;;;2.30;;
9522;SDS011;63165;43.016;25.784;2023-05-10T08:10:17;8.55;;;3.08;;
9522;SDS011;63165;43.016;25.784;2023-05-10T08:12:45;6.13;;;2.47;;
9522;SDS011;63165;43.016;25.784;2023-05-10T08:15:12;6.32;;;2.72;;
9522;SDS011;63165;43.016;25.784;2023-05-10T08:17:39;7.47;;;2.40;;
9522;SDS011;63165;43.016;25.784;2023-05-10T08:20:07;4.40;;;2.58;;
9522;SDS011;63165;43.016;25.784;2023-05-10T08:22:39;7.37;;;2.57;;
9522;SDS011;63165;43.016;25.784;2023-05-10T08:28:03;5.57;;;2.67;;
9522;SDS011;63165;43.016;25.784;2023-05-10T08:31:00;4.97;;;2.33;;
9522;SDS011;63165;43.016;25.784;2023-05-10T08:33:49;6.55;;;2.40;;
9522;SDS011;63165;43.016;25.784;2023-05-10T08:36:19;16.35;;;3.40;;
9522;SDS011;63165;43.016;25.784;2023-05-10T08:39:00;7.78;;;2.63;;
9522;SDS011;63165;43.016;25.784;2023-05-10T08:44:34;4.93;;;2.30;;
9522;SDS011;63165;43.016;25.784;2023-05-10T08:47:09;4.63;;;2.03;;
9522;SDS011;63165;43.016;25.784;2023-05-10T08:49:39;4.70;;;2.00;;
9522;SDS011;63165;43.016;25.784;2023-05-10T08:52:08;5.07;;;2.10;;
9522;SDS011;63165;43.016;25.784;2023-05-10T08:54:39;6.60;;;2.40;;
9522;SDS011;63165;43.016;25.784;2023-05-10T08:57:09;5.50;;;2.70;;
9522;SDS011;63165;43.016;25.784;2023-05-10T08:59:38;7.68;;;2.47;;
9522;SDS011;63165;43.016;25.784;2023-05-10T09:02:05;4.68;;;2.00;;
9522;SDS011;63165;43.016;25.784;2023-05-10T09:04:36;10.88;;;2.60;;
9522;SDS011;63165;43.016;25.784;2023-05-10T09:07:03;10.35;;;2.45;;
9522;SDS011;63165;43.016;25.784;2023-05-10T09:09:35;5.05;;;2.00;;
9522;SDS011;63165;43.016;25.784;2023-05-10T09:12:03;5.43;;;2.05;;
9522;SDS011;63165;43.016;25.784;2023-05-10T09:14:39;5.35;;;2.08;;
9522;SDS011;63165;43.016;25.784;2023-05-10T09:17:18;5.32;;;2.05;;
9522;SDS011;63165;43.016;25.784;2023-05-10T09:19:49;3.90;;;1.98;;
9522;SDS011;63165;43.016;25.784;2023-05-10T09:22:19;6.30;;;2.05;;
9522;SDS011;63165;43.016;25.784;2023-05-10T09:24:47;5.35;;;2.03;;
9522;SDS011;63165;43.016;25.784;2023-05-10T09:27:14;6.30;;;1.98;;
9522;SDS011;63165;43.016;25.784;2023-05-10T09:29:43;2.70;;;1.75;;
9522;SDS011;63165;43.016;25.784;2023-05-10T09:32:10;3.70;;;2.10;;
9522;SDS011;63165;43.016;25.784;2023-05-10T09:34:37;5.10;;;2.10;;
9522;SDS011;63165;43.016;25.784;2023-05-10T09:37:07;8.80;;;3.50;;
9522;SDS011;63165;43.016;25.784;2023-05-10T09:39:36;5.65;;;2.80;;
9522;SDS011;63165;43.016;25.784;2023-05-10T09:42:07;4.13;;;2.13;;
9522;SDS011;63165;43.016;25.784;2023-05-10T09:44:35;3.33;;;1.40;;
9522;SDS011;63165;43.016;25.784;2023-05-10T09:47:12;5.55;;;1.92;;
9522;SDS011;63165;43.016;25.784;2023-05-10T09:49:48;6.97;;;2.40;;
9522;SDS011;63165;43.016;25.784;2023-05-10T09:52:17;3.20;;;1.85;;
9522;SDS011;63165;43.016;25.784;2023-05-10T09:54:47;8.38;;;1.85;;
9522;SDS011;63165;43.016;25.784;2023-05-10T09:57:20;5.00;;;1.92;;
9522;SDS011;63165;43.016;25.784;2023-05-10T09:59:49;5.63;;;2.45;;
9522;SDS011;63165;43.016;25.784;2023-05-10T10:02:18;5.20;;;2.30;;
9522;SDS011;63165;43.016;25.784;2023-05-10T10:04:46;3.80;;;2.20;;
9522;SDS011;63165;43.016;25.784;2023-05-10T10:07:17;5.30;;;2.38;;
9522;SDS011;63165;43.016;25.784;2023-05-10T10:09:50;4.50;;;2.50;;
9522;SDS011;63165;43.016;25.784;2023-05-10T10:12:18;5.85;;;2.75;;
9522;SDS011;63165;43.016;25.784;2023-05-10T10:14:46;6.97;;;2.47;;
9522;SDS011;63165;43.016;25.784;2023-05-10T10:17:18;7.63;;;2.17;;
9522;SDS011;63165;43.016;25.784;2023-05-10T10:19:47;9.85;;;1.90;;
9522;SDS011;63165;43.016;25.784;2023-05-10T10:22:16;4.22;;;2.40;;
9522;SDS011;63165;43.016;25.784;2023-05-10T10:24:43;5.90;;;2.55;;
9522;SDS011;63165;43.016;25.784;2023-05-10T10:27:14;15.48;;;2.38;;
9522;SDS011;63165;43.016;25.784;2023-05-10T10:29:49;3.63;;;2.00;;
9522;SDS011;63165;43.016;25.784;2023-05-10T10:32:30;5.00;;;2.50;;
9522;SDS011;63165;43.016;25.784;2023-05-10T10:35:09;6.10;;;2.37;;
9522;SDS011;63165;43.016;25.784;2023-05-10T10:37:45;4.80;;;1.90;;
9522;SDS011;63165;43.016;25.784;2023-05-10T10:40:23;3.97;;;1.90;;
9522;SDS011;63165;43.016;25.784;2023-05-10T10:42:52;4.65;;;1.90;;
9522;SDS011;63165;43.016;25.784;2023-05-10T10:45:20;3.35;;;2.00;;
9522;SDS011;63165;43.016;25.784;2023-05-10T10:47:50;8.77;;;2.40;;
9522;SDS011;63165;43.016;25.784;2023-05-10T10:50:44;5.60;;;2.20;;
9522;SDS011;63165;43.016;25.784;2023-05-10T10:53:12;4.40;;;1.85;;
9522;SDS011;63165;43.016;25.784;2023-05-10T10:55:45;4.65;;;1.83;;
9522;SDS011;63165;43.016;25.784;2023-05-10T11:01:09;7.35;;;2.10;;
9522;SDS011;63165;43.016;25.784;2023-05-10T11:03:39;276.15;;;20.85;;
9522;SDS011;63165;43.016;25.784;2023-05-10T11:06:06;5.00;;;1.80;;
9522;SDS011;63165;43.016;25.784;2023-05-10T11:08:42;5.70;;;1.92;;
9522;SDS011;63165;43.016;25.784;2023-05-10T11:11:10;9.93;;;1.80;;
9522;SDS011;63165;43.016;25.784;2023-05-10T11:13:42;3.28;;;1.52;;
9522;SDS011;63165;43.016;25.784;2023-05-10T11:16:11;5.95;;;1.83;;
9522;SDS011;63165;43.016;25.784;2023-05-10T11:18:41;5.72;;;1.60;;
9522;SDS011;63165;43.016;25.784;2023-05-10T11:21:19;4.10;;;1.80;;
9522;SDS011;63165;43.016;25.784;2023-05-10T11:23:49;3.40;;;1.80;;
9522;SDS011;63165;43.016;25.784;2023-05-10T11:26:21;3.60;;;1.90;;
9522;SDS011;63165;43.016;25.784;2023-05-10T11:28:50;4.45;;;1.90;;
9522;SDS011;63165;43.016;25.784;2023-05-10T11:31:19;3.13;;;2.00;;
9522;SDS011;63165;43.016;25.784;2023-05-10T11:33:48;5.68;;;1.80;;
9522;SDS011;63165;43.016;25.784;2023-05-10T11:36:17;5.05;;;2.22;;
9522;SDS011;63165;43.016;25.784;2023-05-10T11:38:45;4.07;;;2.17;;
9522;SDS011;63165;43.016;25.784;2023-05-10T11:41:14;3.92;;;2.10;;
9522;SDS011;63165;43.016;25.784;2023-05-10T11:43:43;4.63;;;2.00;;
9522;SDS011;63165;43.016;25.784;2023-05-10T11:46:14;6.82;;;2.90;;
9522;SDS011;63165;43.016;25.784;2023-05-10T11:48:42;8.07;;;2.72;;
9522;SDS011;63165;43.016;25.784;2023-05-10T11:51:11;6.25;;;2.88;;
9522;SDS011;63165;43.016;25.784;2023-05-10T11:53:38;8.52;;;2.65;;
9522;SDS011;63165;43.016;25.784;2023-05-10T11:56:05;4.57;;;2.20;;
9522;SDS011;63165;43.016;25.784;2023-05-10T11:58:34;5.55;;;2.35;;
9522;SDS011;63165;43.016;25.784;2023-05-10T12:01:02;8.48;;;2.30;;
9522;SDS011;63165;43.016;25.784;2023-05-10T12:03:33;6.45;;;2.50;;
9522;SDS011;63165;43.016;25.784;2023-05-10T12:06:02;9.27;;;3.05;;
9522;SDS011;63165;43.016;25.784;2023-05-10T12:08:43;7.68;;;2.47;;
9522;SDS011;63165;43.016;25.784;2023-05-10T12:11:19;6.20;;;2.42;;
9522;SDS011;63165;43.016;25.784;2023-05-10T12:13:54;6.43;;;2.90;;
9522;SDS011;63165;43.016;25.784;2023-05-10T12:16:23;6.75;;;2.55;;
9522;SDS011;63165;43.016;25.784;2023-05-10T12:18:51;6.15;;;2.50;;
9522;SDS011;63165;43.016;25.784;2023-05-10T12:21:20;4.20;;;2.40;;
9522;SDS011;63165;43.016;25.784;2023-05-10T12:23:51;7.03;;;2.63;;
9522;SDS011;63165;43.016;25.784;2023-05-10T12:26:21;8.38;;;2.70;;
9522;SDS011;63165;43.016;25.784;2023-05-10T12:28:52;5.68;;;2.30;;
9522;SDS011;63165;43.016;25.784;2023-05-10T12:31:50;7.55;;;2.72;;
9522;SDS011;63165;43.016;25.784;2023-05-10T12:34:26;9.27;;;2.70;;
9522;SDS011;63165;43.016;25.784;2023-05-10T12:36:56;9.32;;;2.67;;
9522;SDS011;63165;43.016;25.784;2023-05-10T12:39:26;6.25;;;2.30;;
9522;SDS011;63165;43.016;25.784;2023-05-10T12:42:09;5.07;;;2.13;;
9522;SDS011;63165;43.016;25.784;2023-05-10T12:44:39;8.93;;;2.60;;
9522;SDS011;63165;43.016;25.784;2023-05-10T12:47:06;11.48;;;2.63;;
9522;SDS011;63165;43.016;25.784;2023-05-10T12:49:34;6.40;;;2.17;;
9522;SDS011;63165;43.016;25.784;2023-05-10T12:52:18;6.63;;;2.40;;
9522;SDS011;63165;43.016;25.784;2023-05-10T12:54:47;7.45;;;2.40;;
9522;SDS011;63165;43.016;25.784;2023-05-10T12:57:14;9.70;;;3.13;;
9522;SDS011;63165;43.016;25.784;2023-05-10T12:59:41;7.53;;;2.70;;
9522;SDS011;63165;43.016;25.784;2023-05-10T13:02:10;4.68;;;2.60;;
9522;SDS011;63165;43.016;25.784;2023-05-10T13:04:38;5.18;;;2.60;;
9522;SDS011;63165;43.016;25.784;2023-05-10T13:07:07;6.65;;;2.35;;
9522;SDS011;63165;43.016;25.784;2023-05-10T13:09:34;9.13;;;2.38;;
9522;SDS011;63165;43.016;25.784;2023-05-10T13:12:04;5.13;;;2.30;;
9522;SDS011;63165;43.016;25.784;2023-05-10T13:14:31;5.25;;;2.22;;
9522;SDS011;63165;43.016;25.784;2023-05-10T13:17:00;4.18;;;2.30;;
9522;SDS011;63165;43.016;25.784;2023-05-10T13:19:30;4.38;;;2.45;;
9522;SDS011;63165;43.016;25.784;2023-05-10T13:22:04;7.10;;;2.70;;
9522;SDS011;63165;43.016;25.784;2023-05-10T13:24:31;8.80;;;2.70;;
9522;SDS011;63165;43.016;25.784;2023-05-10T13:27:00;5.43;;;2.72;;
9522;SDS011;63165;43.016;25.784;2023-05-10T13:29:29;9.63;;;2.47;;
9522;SDS011;63165;43.016;25.784;2023-05-10T13:31:58;12.68;;;2.67;;
9522;SDS011;63165;43.016;25.784;2023-05-10T13:34:27;4.10;;;2.40;;
9522;SDS011;63165;43.016;25.784;2023-05-10T13:36:54;5.63;;;2.30;;
9522;SDS011;63165;43.016;25.784;2023-05-10T13:39:22;3.92;;;2.25;;
9522;SDS011;63165;43.016;25.784;2023-05-10T13:41:56;8.05;;;2.45;;
9522;SDS011;63165;43.016;25.784;2023-05-10T13:44:24;5.18;;;2.10;;
9522;SDS011;63165;43.016;25.784;2023-05-10T13:46:52;4.18;;;2.10;;
9522;SDS011;63165;43.016;25.784;2023-05-10T13:49:20;4.95;;;2.63;;
9522;SDS011;63165;43.016;25.784;2023-05-10T13:51:48;7.25;;;2.45;;
9522;SDS011;63165;43.016;25.784;2023-05-10T13:54:16;4.63;;;2.35;;
9522;SDS011;63165;43.016;25.784;2023-05-10T13:56:45;5.95;;;2.40;;
9522;SDS011;63165;43.016;25.784;2023-05-10T13:59:12;9.07;;;2.58;;
9522;SDS011;63165;43.016;25.784;2023-05-10T14:01:40;6.22;;;2.63;;
9522;SDS011;63165;43.016;25.784;2023-05-10T14:04:11;5.72;;;2.50;;
9522;SDS011;63165;43.016;25.784;2023-05-10T14:06:38;7.03;;;3.00;;
9522;SDS011;63165;43.016;25.784;2023-05-10T14:09:05;7.75;;;2.67;;
9522;SDS011;63165;43.016;25.784;2023-05-10T14:11:33;8.18;;;2.92;;
9522;SDS011;63165;43.016;25.784;2023-05-10T14:14:00;5.60;;;2.83;;
9522;SDS011;63165;43.016;25.784;2023-05-10T14:16:27;7.82;;;2.90;;
9522;SDS011;63165;43.016;25.784;2023-05-10T14:18:54;6.60;;;2.38;;
9522;SDS011;63165;43.016;25.784;2023-05-10T14:21:23;5.45;;;2.40;;
9522;SDS011;63165;43.016;25.784;2023-05-10T14:23:51;7.03;;;2.55;;
9522;SDS011;63165;43.016;25.784;2023-05-10T14:26:19;5.82;;;2.20;;
9522;SDS011;63165;43.016;25.784;2023-05-10T14:28:47;5.75;;;2.35;;
9522;SDS011;63165;43.016;25.784;2023-05-10T14:31:14;5.03;;;2.60;;
9522;SDS011;63165;43.016;25.784;2023-05-10T14:33:42;5.30;;;2.10;;
9522;SDS011;63165;43.016;25.784;2023-05-10T14:36:09;9.20;;;4.13;;
9522;SDS011;63165;43.016;25.784;2023-05-10T14:38:38;9.35;;;4.25;;
9522;SDS011;63165;43.016;25.784;2023-05-10T14:41:06;9.55;;;2.42;;
9522;SDS011;63165;43.016;25.784;2023-05-10T14:43:33;6.82;;;2.28;;
9522;SDS011;63165;43.016;25.784;2023-05-10T14:46:14;4.47;;;2.25;;
9522;SDS011;63165;43.016;25.784;2023-05-10T14:48:41;9.30;;;2.40;;
9522;SDS011;63165;43.016;25.784;2023-05-10T14:51:08;6.38;;;2.33;;
9522;SDS011;63165;43.016;25.784;2023-05-10T14:53:38;6.10;;;2.00;;
9522;SDS011;63165;43.016;25.784;2023-05-10T14:56:06;4.45;;;2.42;;
9522;SDS011;63165;43.016;25.784;2023-05-10T14:58:33;6.10;;;2.35;;
9522;SDS011;63165;43.016;25.784;2023-05-10T15:01:01;4.28;;;2.28;;
9522;SDS011;63165;43.016;25.784;2023-05-10T15:03:28;6.35;;;2.40;;
9522;SDS011;63165;43.016;25.784;2023-05-10T15:05:55;6.95;;;2.50;;
9522;SDS011;63165;43.016;25.784;2023-05-10T15:08:23;9.02;;;2.58;;
9522;SDS011;63165;43.016;25.784;2023-05-10T15:10:51;8.40;;;2.72;;
9522;SDS011;63165;43.016;25.784;2023-05-10T15:13:20;6.50;;;2.30;;
9522;SDS011;63165;43.016;25.784;2023-05-10T15:15:47;4.35;;;2.05;;
9522;SDS011;63165;43.016;25.784;2023-05-10T15:18:15;4.82;;;2.30;;
9522;SDS011;63165;43.016;25.784;2023-05-10T15:20:42;7.68;;;2.80;;
9522;SDS011;63165;43.016;25.784;2023-05-10T15:23:09;5.10;;;2.80;;
9522;SDS011;63165;43.016;25.784;2023-05-10T15:25:36;4.32;;;2.53;;
9522;SDS011;63165;43.016;25.784;2023-05-10T15:28:05;3.95;;;2.25;;
9522;SDS011;63165;43.016;25.784;2023-05-10T15:30:32;4.03;;;2.58;;
9522;SDS011;63165;43.016;25.784;2023-05-10T15:32:59;5.68;;;3.28;;
9522;SDS011;63165;43.016;25.784;2023-05-10T15:35:27;6.50;;;3.10;;
9522;SDS011;63165;43.016;25.784;2023-05-10T15:37:54;6.00;;;2.33;;
9522;SDS011;63165;43.016;25.784;2023-05-10T15:40:21;8.85;;;3.00;;
9522;SDS011;63165;43.016;25.784;2023-05-10T15:42:49;5.38;;;3.05;;